sensor_id;sensor_type;location;lat;lon;timestamp;P1;durP1;ratioP1;P2;durP2;ratioP2
22679;SDS011;11507;44.858;10.374;2023-03-01T00:02:20;40.83;;;22.65;;
22679;SDS011;11507;44.858;10.374;2023-03-01T00:04:46;41.45;;;24.08;;
22679;SDS011;11507;44.858;10.374;2023-03-01T00:07:12;37.15;;;22.42;;
22679;SDS011;11507;44.858;10.374;2023-03-01T00:12:05;44.83;;;22.83;;
22679;SDS011;11507;44.858;10.374;2023-03-01T00:14:31;40.30;;;21.77;;
22679;SDS011;11507;44.858;10.374;2023-03-01T00:19:23;38.63;;;19.75;;
22679;SDS011;11507;44.858;10.374;2023-03-01T00:24:16;37.00;;;20.52;;
22679;SDS011;11507;44.858;10.374;2023-03-01T00:29:07;31.70;;;18.48;;
22679;SDS011;11507;44.858;10.374;2023-03-01T00:34:00;31.58;;;17.98;;
22679;SDS011;11507;44.858;10.374;2023-03-01T00:36:30;29.02;;;17.67;;
22679;SDS011;11507;44.858;10.374;2023-03-01T00:38:58;31.58;;;17.92;;
22679;SDS011;11507;44.858;10.374;2023-03-01T00:41:25;33.03;;;17.85;;
22679;SDS011;11507;44.858;10.374;2023-03-01T00:43:53;29.40;;;17.60;;
22679;SDS011;11507;44.858;10.374;2023-03-01T00:46:25;27.85;;;17.10;;
22679;SDS011;11507;44.858;10.374;2023-03-01T00:48:51;30.20;;;17.35;;
22679;SDS011;11507;44.858;10.374;2023-03-01T00:51:19;31.50;;;16.88;;
22679;SDS011;11507;44.858;10.374;2023-03-01T00:53:49;27.85;;;15.77;;
22679;SDS011;11507;44.858;10.374;2023-03-01T00:56:16;28.80;;;16.80;;
22679;SDS011;11507;44.858;10.374;2023-03-01T00:58:42;29.08;;;16.77;;
22679;SDS011;11507;44.858;10.374;2023-03-01T01:03:43;32.60;;;16.60;;
22679;SDS011;11507;44.858;10.374;2023-03-01T01:06:21;32.83;;;17.15;;
22679;SDS011;11507;44.858;10.374;2023-03-01T01:08:49;31.13;;;17.23;;
22679;SDS011;11507;44.858;10.374;2023-03-01T01:11:15;30.75;;;17.77;;
22679;SDS011;11507;44.858;10.374;2023-03-01T01:13:43;32.53;;;18.42;;
22679;SDS011;11507;44.858;10.374;2023-03-01T01:16:11;29.52;;;17.88;;
22679;SDS011;11507;44.858;10.374;2023-03-01T01:18:37;32.92;;;18.23;;
22679;SDS011;11507;44.858;10.374;2023-03-01T01:21:04;33.90;;;18.80;;
22679;SDS011;11507;44.858;10.374;2023-03-01T01:23:32;30.45;;;18.55;;
22679;SDS011;11507;44.858;10.374;2023-03-01T01:28:28;35.72;;;18.55;;
22679;SDS011;11507;44.858;10.374;2023-03-01T01:33:20;32.00;;;17.98;;
22679;SDS011;11507;44.858;10.374;2023-03-01T01:38:11;37.15;;;18.60;;
22679;SDS011;11507;44.858;10.374;2023-03-01T01:43:15;33.92;;;19.05;;
22679;SDS011;11507;44.858;10.374;2023-03-01T01:45:51;33.53;;;18.13;;
22679;SDS011;11507;44.858;10.374;2023-03-01T01:48:21;33.00;;;18.73;;
22679;SDS011;11507;44.858;10.374;2023-03-01T01:50:53;36.75;;;19.30;;
22679;SDS011;11507;44.858;10.374;2023-03-01T01:53:22;36.25;;;19.52;;
22679;SDS011;11507;44.858;10.374;2023-03-01T01:55:54;31.17;;;16.95;;
22679;SDS011;11507;44.858;10.374;2023-03-01T01:58:25;32.97;;;16.75;;
22679;SDS011;11507;44.858;10.374;2023-03-01T02:00:53;33.67;;;17.30;;
22679;SDS011;11507;44.858;10.374;2023-03-01T02:03:31;33.47;;;17.60;;
22679;SDS011;11507;44.858;10.374;2023-03-01T02:08:41;33.42;;;18.33;;
22679;SDS011;11507;44.858;10.374;2023-03-01T02:11:07;35.08;;;17.52;;
22679;SDS011;11507;44.858;10.374;2023-03-01T02:13:35;33.28;;;17.52;;
22679;SDS011;11507;44.858;10.374;2023-03-01T02:16:04;33.70;;;18.52;;
22679;SDS011;11507;44.858;10.374;2023-03-01T02:18:33;32.58;;;17.55;;
22679;SDS011;11507;44.858;10.374;2023-03-01T02:23:38;33.10;;;18.88;;
22679;SDS011;11507;44.858;10.374;2023-03-01T02:28:58;36.60;;;18.17;;
22679;SDS011;11507;44.858;10.374;2023-03-01T02:31:25;33.13;;;18.00;;
22679;SDS011;11507;44.858;10.374;2023-03-01T02:34:18;34.83;;;19.25;;
22679;SDS011;11507;44.858;10.374;2023-03-01T02:36:51;30.33;;;17.10;;
22679;SDS011;11507;44.858;10.374;2023-03-01T02:40:23;34.40;;;17.42;;
22679;SDS011;11507;44.858;10.374;2023-03-01T02:42:24;33.20;;;18.88;;
22679;SDS011;11507;44.858;10.374;2023-03-01T02:44:55;34.75;;;19.17;;
22679;SDS011;11507;44.858;10.374;2023-03-01T02:47:21;36.05;;;19.65;;
22679;SDS011;11507;44.858;10.374;2023-03-01T02:49:48;33.95;;;18.23;;
22679;SDS011;11507;44.858;10.374;2023-03-01T02:57:42;32.30;;;17.98;;
22679;SDS011;11507;44.858;10.374;2023-03-01T03:00:10;31.95;;;18.00;;
22679;SDS011;11507;44.858;10.374;2023-03-01T03:02:45;31.67;;;16.92;;
22679;SDS011;11507;44.858;10.374;2023-03-01T03:05:23;27.13;;;15.68;;
22679;SDS011;11507;44.858;10.374;2023-03-01T03:07:56;27.80;;;16.48;;
22679;SDS011;11507;44.858;10.374;2023-03-01T03:10:26;28.40;;;16.13;;
22679;SDS011;11507;44.858;10.374;2023-03-01T03:12:56;29.05;;;16.88;;
22679;SDS011;11507;44.858;10.374;2023-03-01T03:15:32;30.77;;;18.23;;
22679;SDS011;11507;44.858;10.374;2023-03-01T03:18:03;27.95;;;16.40;;
22679;SDS011;11507;44.858;10.374;2023-03-01T03:20:30;32.22;;;17.75;;
22679;SDS011;11507;44.858;10.374;2023-03-01T03:22:57;31.08;;;17.63;;
22679;SDS011;11507;44.858;10.374;2023-03-01T03:25:27;31.67;;;18.25;;
22679;SDS011;11507;44.858;10.374;2023-03-01T03:27:54;30.33;;;17.45;;
22679;SDS011;11507;44.858;10.374;2023-03-01T03:30:25;37.35;;;20.23;;
22679;SDS011;11507;44.858;10.374;2023-03-01T03:32:57;39.70;;;20.08;;
22679;SDS011;11507;44.858;10.374;2023-03-01T03:35:25;36.90;;;19.98;;
22679;SDS011;11507;44.858;10.374;2023-03-01T03:37:55;43.00;;;20.88;;
22679;SDS011;11507;44.858;10.374;2023-03-01T03:40:38;37.70;;;20.73;;
22679;SDS011;11507;44.858;10.374;2023-03-01T03:43:09;30.20;;;17.67;;
22679;SDS011;11507;44.858;10.374;2023-03-01T03:45:38;30.50;;;17.73;;
22679;SDS011;11507;44.858;10.374;2023-03-01T03:50:31;31.88;;;16.98;;
22679;SDS011;11507;44.858;10.374;2023-03-01T03:55:23;35.72;;;19.98;;
22679;SDS011;11507;44.858;10.374;2023-03-01T03:57:53;30.15;;;16.50;;
22679;SDS011;11507;44.858;10.374;2023-03-01T04:02:47;33.38;;;18.35;;
22679;SDS011;11507;44.858;10.374;2023-03-01T04:05:14;33.28;;;17.70;;
22679;SDS011;11507;44.858;10.374;2023-03-01T04:07:42;34.85;;;19.38;;
22679;SDS011;11507;44.858;10.374;2023-03-01T04:10:09;36.35;;;19.58;;
22679;SDS011;11507;44.858;10.374;2023-03-01T04:12:37;33.78;;;18.90;;
22679;SDS011;11507;44.858;10.374;2023-03-01T04:17:38;35.88;;;19.58;;
22679;SDS011;11507;44.858;10.374;2023-03-01T04:20:13;35.47;;;20.95;;
22679;SDS011;11507;44.858;10.374;2023-03-01T04:22:43;36.05;;;20.35;;
22679;SDS011;11507;44.858;10.374;2023-03-01T04:25:13;32.13;;;19.25;;
22679;SDS011;11507;44.858;10.374;2023-03-01T04:27:40;34.60;;;19.48;;
22679;SDS011;11507;44.858;10.374;2023-03-01T04:30:07;32.22;;;18.05;;
22679;SDS011;11507;44.858;10.374;2023-03-01T04:32:34;31.98;;;16.77;;
22679;SDS011;11507;44.858;10.374;2023-03-01T04:35:00;32.28;;;18.45;;
22679;SDS011;11507;44.858;10.374;2023-03-01T04:39:52;33.08;;;18.75;;
22679;SDS011;11507;44.858;10.374;2023-03-01T04:44:44;36.00;;;19.48;;
22679;SDS011;11507;44.858;10.374;2023-03-01T04:47:11;36.55;;;20.90;;
22679;SDS011;11507;44.858;10.374;2023-03-01T04:49:38;33.38;;;17.98;;
22679;SDS011;11507;44.858;10.374;2023-03-01T04:52:04;37.30;;;19.38;;
22679;SDS011;11507;44.858;10.374;2023-03-01T04:56:57;31.77;;;18.02;;
22679;SDS011;11507;44.858;10.374;2023-03-01T04:59:23;34.33;;;19.33;;
22679;SDS011;11507;44.858;10.374;2023-03-01T05:01:50;31.33;;;18.25;;
22679;SDS011;11507;44.858;10.374;2023-03-01T05:04:25;33.45;;;18.88;;
22679;SDS011;11507;44.858;10.374;2023-03-01T05:11:44;33.47;;;18.30;;
22679;SDS011;11507;44.858;10.374;2023-03-01T05:14:11;33.67;;;17.48;;
22679;SDS011;11507;44.858;10.374;2023-03-01T05:16:38;36.95;;;19.98;;
22679;SDS011;11507;44.858;10.374;2023-03-01T05:19:04;37.55;;;20.17;;
22679;SDS011;11507;44.858;10.374;2023-03-01T05:21:39;39.10;;;21.75;;
22679;SDS011;11507;44.858;10.374;2023-03-01T05:24:25;37.97;;;20.38;;
22679;SDS011;11507;44.858;10.374;2023-03-01T05:26:52;35.47;;;19.20;;
22679;SDS011;11507;44.858;10.374;2023-03-01T05:29:22;35.17;;;19.67;;
22679;SDS011;11507;44.858;10.374;2023-03-01T05:31:54;32.92;;;18.95;;
22679;SDS011;11507;44.858;10.374;2023-03-01T05:34:27;35.25;;;19.75;;
22679;SDS011;11507;44.858;10.374;2023-03-01T05:36:58;33.45;;;18.98;;
22679;SDS011;11507;44.858;10.374;2023-03-01T05:39:27;34.83;;;19.25;;
22679;SDS011;11507;44.858;10.374;2023-03-01T05:41:55;36.25;;;19.60;;
22679;SDS011;11507;44.858;10.374;2023-03-01T05:44:23;34.83;;;18.92;;
22679;SDS011;11507;44.858;10.374;2023-03-01T05:46:51;36.00;;;20.88;;
22679;SDS011;11507;44.858;10.374;2023-03-01T05:49:19;36.90;;;19.20;;
22679;SDS011;11507;44.858;10.374;2023-03-01T05:51:50;36.67;;;21.05;;
22679;SDS011;11507;44.858;10.374;2023-03-01T05:54:21;36.50;;;21.02;;
22679;SDS011;11507;44.858;10.374;2023-03-01T05:56:47;33.85;;;19.65;;
22679;SDS011;11507;44.858;10.374;2023-03-01T05:59:17;37.20;;;21.13;;
22679;SDS011;11507;44.858;10.374;2023-03-01T06:01:46;37.22;;;20.65;;
22679;SDS011;11507;44.858;10.374;2023-03-01T06:04:14;37.75;;;18.83;;
22679;SDS011;11507;44.858;10.374;2023-03-01T06:06:42;37.53;;;19.38;;
22679;SDS011;11507;44.858;10.374;2023-03-01T06:09:09;39.63;;;21.23;;
22679;SDS011;11507;44.858;10.374;2023-03-01T06:11:38;34.95;;;18.58;;
22679;SDS011;11507;44.858;10.374;2023-03-01T06:14:10;32.78;;;18.90;;
22679;SDS011;11507;44.858;10.374;2023-03-01T06:16:41;40.20;;;20.55;;
22679;SDS011;11507;44.858;10.374;2023-03-01T06:19:08;39.38;;;20.58;;
22679;SDS011;11507;44.858;10.374;2023-03-01T06:21:36;37.95;;;18.85;;
22679;SDS011;11507;44.858;10.374;2023-03-01T06:24:02;36.65;;;19.55;;
22679;SDS011;11507;44.858;10.374;2023-03-01T06:26:29;32.15;;;18.10;;
22679;SDS011;11507;44.858;10.374;2023-03-01T06:28:59;31.42;;;17.65;;
22679;SDS011;11507;44.858;10.374;2023-03-01T06:31:28;34.53;;;18.35;;
22679;SDS011;11507;44.858;10.374;2023-03-01T06:33:57;35.72;;;19.33;;
22679;SDS011;11507;44.858;10.374;2023-03-01T06:38:49;35.60;;;21.00;;
22679;SDS011;11507;44.858;10.374;2023-03-01T06:41:15;34.95;;;19.52;;
22679;SDS011;11507;44.858;10.374;2023-03-01T06:43:41;32.88;;;17.48;;
22679;SDS011;11507;44.858;10.374;2023-03-01T06:46:11;38.05;;;18.95;;
22679;SDS011;11507;44.858;10.374;2023-03-01T06:48:38;38.47;;;18.55;;
22679;SDS011;11507;44.858;10.374;2023-03-01T06:53:30;36.57;;;20.23;;
22679;SDS011;11507;44.858;10.374;2023-03-01T06:55:57;37.63;;;18.55;;
22679;SDS011;11507;44.858;10.374;2023-03-01T06:58:28;36.15;;;19.55;;
22679;SDS011;11507;44.858;10.374;2023-03-01T07:00:56;35.83;;;20.10;;
22679;SDS011;11507;44.858;10.374;2023-03-01T07:03:23;41.83;;;18.40;;
22679;SDS011;11507;44.858;10.374;2023-03-01T07:05:52;42.78;;;21.85;;
22679;SDS011;11507;44.858;10.374;2023-03-01T07:08:19;42.45;;;22.40;;
22679;SDS011;11507;44.858;10.374;2023-03-01T07:10:46;54.53;;;26.92;;
22679;SDS011;11507;44.858;10.374;2023-03-01T07:13:12;49.60;;;24.90;;
22679;SDS011;11507;44.858;10.374;2023-03-01T07:15:39;37.83;;;19.73;;
22679;SDS011;11507;44.858;10.374;2023-03-01T07:18:09;34.78;;;17.83;;
22679;SDS011;11507;44.858;10.374;2023-03-01T07:20:36;28.67;;;16.15;;
22679;SDS011;11507;44.858;10.374;2023-03-01T07:25:32;31.98;;;16.52;;
22679;SDS011;11507;44.858;10.374;2023-03-01T07:27:58;31.27;;;17.42;;
22679;SDS011;11507;44.858;10.374;2023-03-01T07:30:25;30.85;;;15.02;;
22679;SDS011;11507;44.858;10.374;2023-03-01T07:32:53;24.90;;;14.10;;
22679;SDS011;11507;44.858;10.374;2023-03-01T07:35:24;29.70;;;15.32;;
22679;SDS011;11507;44.858;10.374;2023-03-01T07:37:54;27.70;;;14.00;;
22679;SDS011;11507;44.858;10.374;2023-03-01T07:40:21;28.42;;;13.95;;
22679;SDS011;11507;44.858;10.374;2023-03-01T07:42:48;25.25;;;12.93;;
22679;SDS011;11507;44.858;10.374;2023-03-01T07:45:16;23.75;;;13.20;;
22679;SDS011;11507;44.858;10.374;2023-03-01T07:47:42;23.95;;;12.30;;
22679;SDS011;11507;44.858;10.374;2023-03-01T07:50:08;24.23;;;12.77;;
22679;SDS011;11507;44.858;10.374;2023-03-01T07:52:35;23.27;;;12.93;;
22679;SDS011;11507;44.858;10.374;2023-03-01T07:55:02;21.83;;;12.73;;
22679;SDS011;11507;44.858;10.374;2023-03-01T07:57:29;22.73;;;11.65;;
22679;SDS011;11507;44.858;10.374;2023-03-01T07:59:57;20.48;;;11.68;;
22679;SDS011;11507;44.858;10.374;2023-03-01T08:02:26;20.63;;;11.40;;
22679;SDS011;11507;44.858;10.374;2023-03-01T08:04:54;20.52;;;11.75;;
22679;SDS011;11507;44.858;10.374;2023-03-01T08:07:23;20.80;;;11.25;;
22679;SDS011;11507;44.858;10.374;2023-03-01T08:09:53;23.17;;;11.35;;
22679;SDS011;11507;44.858;10.374;2023-03-01T08:12:19;20.40;;;11.43;;
22679;SDS011;11507;44.858;10.374;2023-03-01T08:14:46;23.02;;;12.43;;
22679;SDS011;11507;44.858;10.374;2023-03-01T08:17:15;21.63;;;12.32;;
22679;SDS011;11507;44.858;10.374;2023-03-01T08:19:42;23.25;;;12.10;;
22679;SDS011;11507;44.858;10.374;2023-03-01T08:22:08;24.08;;;12.35;;
22679;SDS011;11507;44.858;10.374;2023-03-01T08:27:03;25.83;;;13.60;;
22679;SDS011;11507;44.858;10.374;2023-03-01T08:29:32;27.70;;;15.65;;
22679;SDS011;11507;44.858;10.374;2023-03-01T08:32:01;25.98;;;14.40;;
22679;SDS011;11507;44.858;10.374;2023-03-01T08:34:29;24.83;;;14.32;;
22679;SDS011;11507;44.858;10.374;2023-03-01T08:36:56;23.33;;;13.68;;
22679;SDS011;11507;44.858;10.374;2023-03-01T08:39:26;26.27;;;14.90;;
22679;SDS011;11507;44.858;10.374;2023-03-01T08:41:53;26.70;;;15.15;;
22679;SDS011;11507;44.858;10.374;2023-03-01T08:44:21;25.85;;;14.93;;
22679;SDS011;11507;44.858;10.374;2023-03-01T08:46:48;23.98;;;13.45;;
22679;SDS011;11507;44.858;10.374;2023-03-01T08:49:17;26.50;;;14.43;;
22679;SDS011;11507;44.858;10.374;2023-03-01T08:51:47;26.67;;;14.20;;
22679;SDS011;11507;44.858;10.374;2023-03-01T08:54:17;24.48;;;13.45;;
22679;SDS011;11507;44.858;10.374;2023-03-01T08:59:16;26.90;;;13.75;;
22679;SDS011;11507;44.858;10.374;2023-03-01T09:01:43;26.42;;;14.25;;
22679;SDS011;11507;44.858;10.374;2023-03-01T09:04:12;24.10;;;14.20;;
22679;SDS011;11507;44.858;10.374;2023-03-01T09:06:42;24.83;;;13.13;;
22679;SDS011;11507;44.858;10.374;2023-03-01T09:09:13;24.42;;;13.18;;
22679;SDS011;11507;44.858;10.374;2023-03-01T09:11:44;28.48;;;13.60;;
22679;SDS011;11507;44.858;10.374;2023-03-01T09:14:15;26.60;;;13.25;;
22679;SDS011;11507;44.858;10.374;2023-03-01T09:16:44;24.15;;;13.45;;
22679;SDS011;11507;44.858;10.374;2023-03-01T09:21:37;24.88;;;13.73;;
22679;SDS011;11507;44.858;10.374;2023-03-01T09:24:05;26.55;;;13.35;;
22679;SDS011;11507;44.858;10.374;2023-03-01T09:26:32;22.52;;;12.68;;
22679;SDS011;11507;44.858;10.374;2023-03-01T09:29:00;26.88;;;13.30;;
22679;SDS011;11507;44.858;10.374;2023-03-01T09:31:26;26.73;;;13.23;;
22679;SDS011;11507;44.858;10.374;2023-03-01T09:33:56;23.23;;;12.77;;
22679;SDS011;11507;44.858;10.374;2023-03-01T09:36:30;23.30;;;12.85;;
22679;SDS011;11507;44.858;10.374;2023-03-01T09:38:57;22.90;;;12.45;;
22679;SDS011;11507;44.858;10.374;2023-03-01T09:44:10;22.45;;;12.60;;
22679;SDS011;11507;44.858;10.374;2023-03-01T09:46:56;20.58;;;11.48;;
22679;SDS011;11507;44.858;10.374;2023-03-01T09:49:25;21.60;;;12.52;;
22679;SDS011;11507;44.858;10.374;2023-03-01T09:54:57;22.08;;;12.63;;
22679;SDS011;11507;44.858;10.374;2023-03-01T10:02:52;23.17;;;12.88;;
22679;SDS011;11507;44.858;10.374;2023-03-01T10:05:31;23.15;;;13.18;;
22679;SDS011;11507;44.858;10.374;2023-03-01T10:11:30;22.48;;;12.02;;
22679;SDS011;11507;44.858;10.374;2023-03-01T10:19:31;23.73;;;12.77;;
22679;SDS011;11507;44.858;10.374;2023-03-01T10:22:26;24.42;;;12.68;;
22679;SDS011;11507;44.858;10.374;2023-03-01T10:24:57;21.50;;;12.05;;
22679;SDS011;11507;44.858;10.374;2023-03-01T10:27:25;22.73;;;11.98;;
22679;SDS011;11507;44.858;10.374;2023-03-01T10:33:15;21.48;;;12.38;;
22679;SDS011;11507;44.858;10.374;2023-03-01T10:35:48;28.10;;;12.80;;
22679;SDS011;11507;44.858;10.374;2023-03-01T10:38:17;21.73;;;12.30;;
22679;SDS011;11507;44.858;10.374;2023-03-01T10:40:52;20.55;;;12.75;;
22679;SDS011;11507;44.858;10.374;2023-03-01T10:43:24;21.65;;;12.50;;
22679;SDS011;11507;44.858;10.374;2023-03-01T10:45:55;23.65;;;13.10;;
22679;SDS011;11507;44.858;10.374;2023-03-01T10:48:24;19.92;;;11.35;;
22679;SDS011;11507;44.858;10.374;2023-03-01T10:56:05;23.10;;;12.05;;
22679;SDS011;11507;44.858;10.374;2023-03-01T10:58:33;20.27;;;11.13;;
22679;SDS011;11507;44.858;10.374;2023-03-01T11:01:03;18.60;;;11.60;;
22679;SDS011;11507;44.858;10.374;2023-03-01T11:03:33;19.92;;;11.98;;
22679;SDS011;11507;44.858;10.374;2023-03-01T11:08:44;22.43;;;11.60;;
22679;SDS011;11507;44.858;10.374;2023-03-01T11:13:51;21.13;;;12.23;;
22679;SDS011;11507;44.858;10.374;2023-03-01T11:16:29;21.00;;;11.77;;
22679;SDS011;11507;44.858;10.374;2023-03-01T11:21:54;21.05;;;11.55;;
22679;SDS011;11507;44.858;10.374;2023-03-01T11:24:46;20.42;;;10.77;;
22679;SDS011;11507;44.858;10.374;2023-03-01T11:27:35;20.02;;;11.32;;
22679;SDS011;11507;44.858;10.374;2023-03-01T11:30:15;22.60;;;11.80;;
22679;SDS011;11507;44.858;10.374;2023-03-01T11:33:08;20.70;;;11.73;;
22679;SDS011;11507;44.858;10.374;2023-03-01T11:36:04;19.77;;;10.98;;
22679;SDS011;11507;44.858;10.374;2023-03-01T11:38:49;19.85;;;10.95;;
22679;SDS011;11507;44.858;10.374;2023-03-01T11:41:26;19.10;;;10.68;;
22679;SDS011;11507;44.858;10.374;2023-03-01T11:44:03;21.13;;;11.60;;
22679;SDS011;11507;44.858;10.374;2023-03-01T11:46:39;23.05;;;11.25;;
22679;SDS011;11507;44.858;10.374;2023-03-01T11:49:37;22.10;;;11.52;;
22679;SDS011;11507;44.858;10.374;2023-03-01T11:55:40;21.30;;;11.50;;
22679;SDS011;11507;44.858;10.374;2023-03-01T12:12:07;21.17;;;12.48;;
22679;SDS011;11507;44.858;10.374;2023-03-01T12:15:00;23.80;;;12.45;;
22679;SDS011;11507;44.858;10.374;2023-03-01T12:18:06;24.75;;;12.68;;
22679;SDS011;11507;44.858;10.374;2023-03-01T12:28:35;24.08;;;14.13;;
22679;SDS011;11507;44.858;10.374;2023-03-01T12:31:16;24.45;;;14.18;;
22679;SDS011;11507;44.858;10.374;2023-03-01T12:34:11;29.17;;;14.20;;
22679;SDS011;11507;44.858;10.374;2023-03-01T12:39:39;22.83;;;13.82;;
22679;SDS011;11507;44.858;10.374;2023-03-01T12:53:00;23.20;;;13.18;;
22679;SDS011;11507;44.858;10.374;2023-03-01T13:11:56;27.80;;;14.20;;
22679;SDS011;11507;44.858;10.374;2023-03-01T13:16:54;28.10;;;15.30;;
22679;SDS011;11507;44.858;10.374;2023-03-01T13:19:22;26.80;;;14.70;;
22679;SDS011;11507;44.858;10.374;2023-03-01T13:21:55;29.17;;;15.07;;
22679;SDS011;11507;44.858;10.374;2023-03-01T13:24:38;29.52;;;15.02;;
22679;SDS011;11507;44.858;10.374;2023-03-01T13:32:20;26.02;;;14.43;;
22679;SDS011;11507;44.858;10.374;2023-03-01T13:34:50;28.95;;;15.35;;
22679;SDS011;11507;44.858;10.374;2023-03-01T13:37:22;30.92;;;15.88;;
22679;SDS011;11507;44.858;10.374;2023-03-01T13:42:31;28.02;;;15.10;;
22679;SDS011;11507;44.858;10.374;2023-03-01T13:45:04;30.02;;;15.23;;
22679;SDS011;11507;44.858;10.374;2023-03-01T13:47:39;28.02;;;15.13;;
22679;SDS011;11507;44.858;10.374;2023-03-01T13:50:15;27.98;;;15.45;;
22679;SDS011;11507;44.858;10.374;2023-03-01T13:52:48;29.08;;;15.25;;
22679;SDS011;11507;44.858;10.374;2023-03-01T13:55:23;27.83;;;14.60;;
22679;SDS011;11507;44.858;10.374;2023-03-01T13:57:50;28.77;;;15.27;;
22679;SDS011;11507;44.858;10.374;2023-03-01T14:03:04;30.27;;;14.90;;
22679;SDS011;11507;44.858;10.374;2023-03-01T14:05:39;27.35;;;15.15;;
22679;SDS011;11507;44.858;10.374;2023-03-01T14:08:18;27.25;;;15.10;;
22679;SDS011;11507;44.858;10.374;2023-03-01T14:19:14;32.00;;;16.20;;
22679;SDS011;11507;44.858;10.374;2023-03-01T14:24:48;34.28;;;16.88;;
22679;SDS011;11507;44.858;10.374;2023-03-01T14:27:16;30.27;;;15.82;;
22679;SDS011;11507;44.858;10.374;2023-03-01T14:29:45;32.38;;;16.08;;
22679;SDS011;11507;44.858;10.374;2023-03-01T14:32:22;30.45;;;16.52;;
22679;SDS011;11507;44.858;10.374;2023-03-01T14:34:51;31.88;;;16.75;;
22679;SDS011;11507;44.858;10.374;2023-03-01T14:37:27;33.92;;;17.35;;
22679;SDS011;11507;44.858;10.374;2023-03-01T14:39:57;32.03;;;17.15;;
22679;SDS011;11507;44.858;10.374;2023-03-01T14:42:25;31.42;;;16.60;;
22679;SDS011;11507;44.858;10.374;2023-03-01T14:44:55;31.70;;;16.58;;
22679;SDS011;11507;44.858;10.374;2023-03-01T14:50:30;22.58;;;12.57;;
22679;SDS011;11507;44.858;10.374;2023-03-01T14:53:00;32.88;;;17.02;;
22679;SDS011;11507;44.858;10.374;2023-03-01T14:55:40;34.53;;;17.85;;
22679;SDS011;11507;44.858;10.374;2023-03-01T14:58:14;33.67;;;18.20;;
22679;SDS011;11507;44.858;10.374;2023-03-01T15:00:47;32.95;;;17.38;;
22679;SDS011;11507;44.858;10.374;2023-03-01T15:06:20;32.70;;;17.27;;
22679;SDS011;11507;44.858;10.374;2023-03-01T15:08:52;29.67;;;16.98;;
22679;SDS011;11507;44.858;10.374;2023-03-01T15:11:24;31.00;;;16.92;;
22679;SDS011;11507;44.858;10.374;2023-03-01T15:13:53;31.75;;;16.00;;
22679;SDS011;11507;44.858;10.374;2023-03-01T15:18:51;32.13;;;17.27;;
22679;SDS011;11507;44.858;10.374;2023-03-01T15:21:33;31.65;;;16.25;;
22679;SDS011;11507;44.858;10.374;2023-03-01T15:27:12;28.65;;;16.30;;
22679;SDS011;11507;44.858;10.374;2023-03-01T15:29:40;30.35;;;16.27;;
22679;SDS011;11507;44.858;10.374;2023-03-01T15:34:55;27.45;;;15.07;;
22679;SDS011;11507;44.858;10.374;2023-03-01T15:37:40;25.88;;;14.88;;
22679;SDS011;11507;44.858;10.374;2023-03-01T15:40:18;26.13;;;14.95;;
22679;SDS011;11507;44.858;10.374;2023-03-01T15:42:58;27.70;;;15.25;;
22679;SDS011;11507;44.858;10.374;2023-03-01T15:45:25;29.02;;;16.20;;
22679;SDS011;11507;44.858;10.374;2023-03-01T15:47:56;30.35;;;17.05;;
22679;SDS011;11507;44.858;10.374;2023-03-01T15:50:28;27.13;;;14.80;;
22679;SDS011;11507;44.858;10.374;2023-03-01T15:52:58;25.23;;;14.90;;
22679;SDS011;11507;44.858;10.374;2023-03-01T15:55:26;26.33;;;15.05;;
22679;SDS011;11507;44.858;10.374;2023-03-01T15:58:00;26.45;;;14.57;;
22679;SDS011;11507;44.858;10.374;2023-03-01T16:00:29;26.00;;;14.15;;
22679;SDS011;11507;44.858;10.374;2023-03-01T16:02:55;26.73;;;14.10;;
22679;SDS011;11507;44.858;10.374;2023-03-01T16:05:25;24.23;;;13.25;;
22679;SDS011;11507;44.858;10.374;2023-03-01T16:07:56;24.83;;;13.93;;
22679;SDS011;11507;44.858;10.374;2023-03-01T16:10:22;23.83;;;14.18;;
22679;SDS011;11507;44.858;10.374;2023-03-01T16:12:49;26.45;;;14.98;;
22679;SDS011;11507;44.858;10.374;2023-03-01T16:15:22;26.52;;;15.30;;
22679;SDS011;11507;44.858;10.374;2023-03-01T16:17:50;26.67;;;14.65;;
22679;SDS011;11507;44.858;10.374;2023-03-01T16:20:20;27.90;;;15.82;;
22679;SDS011;11507;44.858;10.374;2023-03-01T16:22:47;28.38;;;15.95;;
22679;SDS011;11507;44.858;10.374;2023-03-01T16:25:16;25.17;;;15.07;;
22679;SDS011;11507;44.858;10.374;2023-03-01T16:27:44;29.20;;;15.60;;
22679;SDS011;11507;44.858;10.374;2023-03-01T16:30:11;30.38;;;16.27;;
22679;SDS011;11507;44.858;10.374;2023-03-01T16:32:39;27.95;;;14.75;;
22679;SDS011;11507;44.858;10.374;2023-03-01T16:35:07;26.60;;;14.93;;
22679;SDS011;11507;44.858;10.374;2023-03-01T16:37:34;26.33;;;14.50;;
22679;SDS011;11507;44.858;10.374;2023-03-01T16:40:01;27.38;;;15.38;;
22679;SDS011;11507;44.858;10.374;2023-03-01T16:42:38;31.48;;;16.30;;
22679;SDS011;11507;44.858;10.374;2023-03-01T16:47:32;22.73;;;12.00;;
22679;SDS011;11507;44.858;10.374;2023-03-01T16:50:00;27.90;;;15.10;;
22679;SDS011;11507;44.858;10.374;2023-03-01T16:52:28;28.42;;;15.60;;
22679;SDS011;11507;44.858;10.374;2023-03-01T16:57:20;31.30;;;15.93;;
22679;SDS011;11507;44.858;10.374;2023-03-01T17:02:13;31.15;;;17.08;;
22679;SDS011;11507;44.858;10.374;2023-03-01T17:04:50;33.05;;;17.48;;
22679;SDS011;11507;44.858;10.374;2023-03-01T17:07:18;27.63;;;16.15;;
22679;SDS011;11507;44.858;10.374;2023-03-01T17:09:45;31.48;;;16.77;;
22679;SDS011;11507;44.858;10.374;2023-03-01T17:12:11;31.23;;;16.50;;
22679;SDS011;11507;44.858;10.374;2023-03-01T17:14:39;32.38;;;16.20;;
22679;SDS011;11507;44.858;10.374;2023-03-01T17:17:09;30.98;;;16.88;;
22679;SDS011;11507;44.858;10.374;2023-03-01T17:19:36;34.28;;;17.45;;
22679;SDS011;11507;44.858;10.374;2023-03-01T17:22:09;34.03;;;17.38;;
22679;SDS011;11507;44.858;10.374;2023-03-01T17:24:37;33.53;;;16.92;;
22679;SDS011;11507;44.858;10.374;2023-03-01T17:27:03;32.70;;;17.05;;
22679;SDS011;11507;44.858;10.374;2023-03-01T17:29:30;30.13;;;17.35;;
22679;SDS011;11507;44.858;10.374;2023-03-01T17:31:56;33.10;;;18.70;;
22679;SDS011;11507;44.858;10.374;2023-03-01T17:36:48;34.13;;;17.33;;
22679;SDS011;11507;44.858;10.374;2023-03-01T17:39:15;31.70;;;16.77;;
22679;SDS011;11507;44.858;10.374;2023-03-01T17:41:41;32.17;;;17.75;;
22679;SDS011;11507;44.858;10.374;2023-03-01T17:44:07;35.03;;;18.70;;
22679;SDS011;11507;44.858;10.374;2023-03-01T17:46:34;31.23;;;17.35;;
22679;SDS011;11507;44.858;10.374;2023-03-01T17:51:26;31.10;;;17.80;;
22679;SDS011;11507;44.858;10.374;2023-03-01T17:53:52;35.05;;;17.95;;
22679;SDS011;11507;44.858;10.374;2023-03-01T17:58:43;37.45;;;18.98;;
22679;SDS011;11507;44.858;10.374;2023-03-01T18:01:14;34.03;;;18.20;;
22679;SDS011;11507;44.858;10.374;2023-03-01T18:03:45;30.33;;;17.02;;
22679;SDS011;11507;44.858;10.374;2023-03-01T18:06:14;33.00;;;18.08;;
22679;SDS011;11507;44.858;10.374;2023-03-01T18:08:42;30.67;;;16.95;;